Terminal Aerodrome Forecast
Issued by NWS

Home | Current Version | Previous Version | Text Only | Print | Product List | Glossary On
Versions: 1 2 3 4 5 6 7 8 9 10 11 12 13 14 15 16 17
000
FTUS42 TJSJ 280714 AAA
TAFJSJ
TAF AMD
TJSJ 280714Z 2807/2906 VRB15KT 6SM -SHRA SCT035 BKN050 OVC090
     FM281000 13015G25KT 6SM -SHRA SCT025 BKN050 BKN100
     FM282300 09009KT P6SM VCSH SCT025 SCT060=

USA.gov is the U.S. government's official web portal to all federal, state and local government web resources and services.